GMFO

Angads Airport

Oujda, Morocco
METAR GMFO 200500Z VRB03KT 9999 FEW020 15/15 Q1019 NOSIG
Observed Flight Rules
Jun-20 @ 05:00 UTC (39 minutes ago) Visual Flight Rules
Wind Visibility Clouds
Variable at 3 knots 10,000+ meters
  • Few at 2,000' AGL
Temperatures Readings
Current 15°C / 59°F
Dewpoint 15°C / 59°F
Humidity 100%
Altimeter 30.09" Hg
Pressure 1019 hPa
Elevation 470
METAR GMFO 200500Z VRB03KT 9999 FEW020 15/15 Q1019 NOSIG
Observed Flight Rules
Jun-20 @ 05:00 UTC
(39 minutes ago)
VFR
Wind Visibility
Variable at 3 knots 10,000+ meters
Clouds
  • Few at 2,000' AGL
Temperature Dewpoint
15°C / 59°F 15°C / 59°F
Humidity Altimeter Pressure
100% 30.09" Hg 1019 hPa